createdAt,value
2023-04-16T00:01:04.643Z,87.20
2023-04-16T00:03:34.259Z,86.53
2023-04-16T00:06:02.876Z,86.35
2023-04-16T00:08:31.171Z,86.50
2023-04-16T00:10:59.531Z,86.45
2023-04-16T00:13:28.127Z,86.93
2023-04-16T00:15:56.408Z,86.36
2023-04-16T00:18:24.878Z,86.16
2023-04-16T00:20:53.687Z,86.88
2023-04-16T00:23:22.049Z,87.76
2023-04-16T00:25:50.267Z,85.86
2023-04-16T00:28:18.608Z,84.64
2023-04-16T00:30:47.115Z,83.68
2023-04-16T00:33:16.201Z,82.84
2023-04-16T00:35:48.283Z,82.43
2023-04-16T00:38:16.951Z,81.64
2023-04-16T00:40:45.545Z,80.99
2023-04-16T00:43:23.062Z,80.13
2023-04-16T00:45:53.111Z,79.74
2023-04-16T00:48:21.559Z,79.98
2023-04-16T00:50:49.625Z,81.07
2023-04-16T00:53:17.974Z,81.07
2023-04-16T00:55:46.558Z,80.86
2023-04-16T00:58:14.941Z,83.43
2023-04-16T01:00:43.320Z,83.89
2023-04-16T01:03:12.037Z,82.66
2023-04-16T01:05:41.121Z,86.65
2023-04-16T01:08:20.605Z,88.09
2023-04-16T01:10:48.849Z,87.82
2023-04-16T01:13:17.206Z,86.47
2023-04-16T01:15:45.582Z,85.62
2023-04-16T01:18:18.789Z,86.70
2023-04-16T01:20:48.748Z,85.31
2023-04-16T01:23:21.003Z,86.13
2023-04-16T01:25:49.267Z,84.99
2023-04-16T01:28:18.078Z,84.90
2023-04-16T01:30:46.342Z,85.15
2023-04-16T01:33:34.890Z,85.31
2023-04-16T01:36:03.187Z,85.78
2023-04-16T01:38:31.385Z,88.11
2023-04-16T01:41:00.238Z,87.78
2023-04-16T01:43:28.515Z,87.27
2023-04-16T01:46:20.716Z,87.46
2023-04-16T01:48:49.123Z,86.85
2023-04-16T01:51:17.402Z,88.51
2023-04-16T01:53:46.496Z,90.01
2023-04-16T01:56:14.674Z,89.50
2023-04-16T01:58:43.264Z,89.95
2023-04-16T02:01:12.247Z,89.54
2023-04-16T02:03:42.007Z,87.68
2023-04-16T02:06:10.544Z,86.98
2023-04-16T02:08:38.823Z,87.39
2023-04-16T02:11:07.821Z,89.02
2023-04-16T02:13:36.921Z,91.82
2023-04-16T02:16:06.165Z,92.15
2023-04-16T02:18:55.323Z,90.49
2023-04-16T02:21:24.379Z,91.06
2023-04-16T02:23:52.864Z,90.77
2023-04-16T02:26:26.713Z,89.77
2023-04-16T02:28:56.707Z,89.53
2023-04-16T02:31:28.999Z,89.94
2023-04-16T02:33:58.398Z,89.95
2023-04-16T02:36:27.664Z,88.84
2023-04-16T02:38:56.245Z,92.10
2023-04-16T02:41:25.377Z,91.60
2023-04-16T02:43:53.726Z,90.22
2023-04-16T02:46:22.450Z,92.21
2023-04-16T02:48:51.645Z,90.78
2023-04-16T02:51:20.200Z,90.09
2023-04-16T02:53:48.641Z,89.47
2023-04-16T02:56:16.874Z,88.01
2023-04-16T02:58:45.488Z,90.17
2023-04-16T03:01:13.797Z,89.57
2023-04-16T03:03:42.107Z,89.29
2023-04-16T03:06:10.299Z,91.39
2023-04-16T03:08:38.586Z,91.38
2023-04-16T03:11:07.824Z,91.94
2023-04-16T03:13:36.472Z,91.47
2023-04-16T03:16:05.389Z,91.91
2023-04-16T03:18:33.458Z,91.31
2023-04-16T03:21:01.690Z,90.32
2023-04-16T03:23:31.091Z,90.61
2023-04-16T03:25:59.475Z,91.45
2023-04-16T03:28:27.955Z,95.37
2023-04-16T03:30:56.492Z,95.58
2023-04-16T03:33:25.024Z,93.59
2023-04-16T03:35:59.750Z,93.78
2023-04-16T03:38:30.623Z,93.48
2023-04-16T03:41:00.180Z,93.57
2023-04-16T03:43:28.703Z,93.37
2023-04-16T03:45:57.488Z,98.92
2023-04-16T03:48:26.171Z,98.32
2023-04-16T03:50:55.198Z,94.79
2023-04-16T03:53:23.745Z,93.96
2023-04-16T03:55:52.945Z,95.45
2023-04-16T03:58:22.060Z,95.39
2023-04-16T04:00:52.059Z,94.61
2023-04-16T04:03:21.185Z,94.06
2023-04-16T04:05:50.698Z,94.70
2023-04-16T04:08:26.322Z,97.71
2023-04-16T04:10:54.798Z,96.39
2023-04-16T04:13:24.514Z,96.73
2023-04-16T04:15:53.313Z,96.51
2023-04-16T04:18:22.256Z,94.75
2023-04-16T04:20:50.482Z,94.07
2023-04-16T04:23:20.588Z,93.46
2023-04-16T04:25:49.363Z,93.56
2023-04-16T04:28:17.863Z,93.63
2023-04-16T04:30:46.141Z,94.51
2023-04-16T04:33:14.646Z,95.01
2023-04-16T04:35:43.420Z,95.97
2023-04-16T04:40:40.274Z,93.21
2023-04-16T04:43:09.534Z,93.47
2023-04-16T04:45:37.919Z,95.40
2023-04-16T04:48:07.367Z,99.83
2023-04-16T04:50:37.125Z,98.78
2023-04-16T04:53:10.177Z,97.47
2023-04-16T04:55:39.849Z,96.76
2023-04-16T04:58:08.828Z,95.58
2023-04-16T05:00:37.567Z,94.02
2023-04-16T05:03:09.812Z,94.09
2023-04-16T05:05:40.901Z,93.01
2023-04-16T05:08:09.075Z,93.58
2023-04-16T05:10:37.391Z,92.90
2023-04-16T05:13:05.928Z,91.60
2023-04-16T05:15:34.105Z,90.35
2023-04-16T05:18:02.550Z,87.94
2023-04-16T05:20:31.159Z,85.93
2023-04-16T05:22:59.318Z,85.10
2023-04-16T05:25:27.552Z,82.05
2023-04-16T05:27:56.004Z,75.67
2023-04-16T05:30:24.533Z,74.07
2023-04-16T05:32:52.816Z,72.03
2023-04-16T05:35:21.348Z,67.93
2023-04-16T05:37:49.722Z,66.55
2023-04-16T05:40:17.999Z,69.10
2023-04-16T05:42:46.115Z,68.85
2023-04-16T05:45:14.552Z,69.22
2023-04-16T05:47:43.071Z,70.70
2023-04-16T05:50:11.635Z,71.37
2023-04-16T05:52:40.013Z,71.79
2023-04-16T05:55:08.791Z,69.34
2023-04-16T05:57:37.069Z,68.68
2023-04-16T06:00:06.271Z,63.22
2023-04-16T06:02:40.450Z,59.96
2023-04-16T06:05:08.945Z,56.21
2023-04-16T06:07:37.294Z,53.98
2023-04-16T06:10:06.170Z,51.63
2023-04-16T06:12:34.433Z,49.58
2023-04-16T06:15:03.836Z,48.07
2023-04-16T06:17:32.223Z,46.39
2023-04-16T06:20:00.640Z,45.78
2023-04-16T06:22:29.084Z,45.29
2023-04-16T06:24:57.448Z,44.24
2023-04-16T06:27:26.085Z,44.37
2023-04-16T06:29:54.524Z,44.11
2023-04-16T06:32:22.948Z,42.86
2023-04-16T06:34:51.491Z,41.65
2023-04-16T06:37:19.759Z,41.44
2023-04-16T06:39:47.963Z,40.86
2023-04-16T06:42:16.316Z,40.39
2023-04-16T06:44:44.529Z,39.75
2023-04-16T06:47:12.692Z,38.98
2023-04-16T06:49:40.808Z,38.57
2023-04-16T06:52:09.124Z,38.74
2023-04-16T06:54:37.296Z,38.10
2023-04-16T06:57:05.387Z,37.68
2023-04-16T06:59:33.544Z,36.37
2023-04-16T07:02:02.166Z,36.91
2023-04-16T07:04:30.729Z,37.34
2023-04-16T07:06:59.116Z,37.58
2023-04-16T07:09:27.600Z,37.21
2023-04-16T07:11:55.863Z,35.80
2023-04-16T07:14:24.128Z,35.85
2023-04-16T07:16:52.564Z,35.21
2023-04-16T07:19:21.471Z,36.30
2023-04-16T07:21:49.775Z,36.97
2023-04-16T07:24:18.069Z,36.96
2023-04-16T07:26:46.304Z,36.96
2023-04-16T07:29:14.626Z,37.01
2023-04-16T07:31:42.924Z,36.99
2023-04-16T07:34:11.790Z,37.39
2023-04-16T07:36:40.073Z,37.80
2023-04-16T07:39:08.761Z,38.65
2023-04-16T07:41:37.551Z,40.34
2023-04-16T07:44:06.046Z,40.41
2023-04-16T07:46:43.582Z,40.05
2023-04-16T07:49:15.752Z,40.36
2023-04-16T07:51:44.192Z,41.47
2023-04-16T07:54:12.497Z,40.76
2023-04-16T07:56:41.078Z,39.97
2023-04-16T07:59:21.846Z,40.77
2023-04-16T08:01:54.110Z,40.19
2023-04-16T08:04:26.271Z,40.99
2023-04-16T08:06:55.053Z,41.18
2023-04-16T08:09:28.907Z,42.08
2023-04-16T08:11:57.705Z,41.66
2023-04-16T08:14:25.821Z,41.78
2023-04-16T08:16:54.126Z,41.38
2023-04-16T08:19:22.385Z,42.01
2023-04-16T08:21:50.597Z,41.77
2023-04-16T08:24:18.759Z,40.97
2023-04-16T08:26:47.114Z,40.97
2023-04-16T08:29:15.498Z,40.44
2023-04-16T08:31:44.248Z,39.93
2023-04-16T08:34:12.970Z,41.34
2023-04-16T08:36:41.796Z,41.96
2023-04-16T08:39:10.322Z,42.03
2023-04-16T08:41:44.882Z,41.18
2023-04-16T08:44:28.473Z,41.90
2023-04-16T08:46:59.307Z,41.76
2023-04-16T08:49:28.444Z,42.21
2023-04-16T08:51:57.439Z,42.60
2023-04-16T08:54:25.637Z,41.96
2023-04-16T08:56:55.284Z,42.36
2023-04-16T08:59:24.389Z,42.28
2023-04-16T09:01:58.279Z,41.15
2023-04-16T09:04:30.836Z,40.98
2023-04-16T09:06:59.506Z,41.37
2023-04-16T09:09:28.635Z,41.00
2023-04-16T09:11:56.871Z,40.53
2023-04-16T09:14:25.261Z,39.71
2023-04-16T09:16:57.530Z,39.82
2023-04-16T09:19:26.009Z,40.19
2023-04-16T09:21:54.416Z,40.50
2023-04-16T09:24:23.281Z,40.48
2023-04-16T09:26:54.305Z,41.67
2023-04-16T09:29:38.525Z,41.36
2023-04-16T09:32:07.963Z,41.54
2023-04-16T09:34:53.709Z,41.16
2023-04-16T09:37:22.251Z,41.20
2023-04-16T09:39:55.971Z,41.96
2023-04-16T09:42:25.812Z,41.87
2023-04-16T09:44:56.230Z,41.48
2023-04-16T09:47:46.458Z,41.57
2023-04-16T09:50:19.288Z,41.22
2023-04-16T09:52:51.761Z,40.83
2023-04-16T09:55:27.430Z,39.72
2023-04-16T09:58:04.463Z,40.16
2023-04-16T10:00:32.776Z,37.48
2023-04-16T10:03:07.713Z,35.95
2023-04-16T10:05:36.697Z,34.64
2023-04-16T10:08:13.509Z,35.39
2023-04-16T10:10:42.197Z,34.98
2023-04-16T10:13:11.056Z,35.06
2023-04-16T10:15:39.923Z,35.38
2023-04-16T10:18:08.713Z,35.25
2023-04-16T10:20:37.689Z,35.60
2023-04-16T10:23:06.632Z,36.04
2023-04-16T10:25:34.964Z,36.09
2023-04-16T10:28:03.644Z,35.45
2023-04-16T10:30:32.243Z,34.57
2023-04-16T10:33:02.531Z,34.90
2023-04-16T10:35:31.400Z,33.59
2023-04-16T10:38:27.222Z,34.41
2023-04-16T10:41:02.962Z,33.64
2023-04-16T10:43:33.819Z,33.80
2023-04-16T10:46:37.976Z,34.15
2023-04-16T10:49:18.009Z,34.04
2023-04-16T10:52:01.222Z,34.68
2023-04-16T10:54:30.969Z,35.33
2023-04-16T10:57:04.812Z,35.48
2023-04-16T10:59:35.361Z,35.39
2023-04-16T11:02:09.850Z,35.94
2023-04-16T11:04:40.441Z,36.05
2023-04-16T11:07:14.557Z,36.41
2023-04-16T11:09:47.933Z,36.11
2023-04-16T11:12:19.306Z,36.64
2023-04-16T11:14:53.520Z,37.42
2023-04-16T11:17:22.723Z,36.49
2023-04-16T11:19:51.348Z,36.34
2023-04-16T11:22:22.165Z,35.86
2023-04-16T11:24:56.325Z,35.72
2023-04-16T11:27:25.113Z,35.49
2023-04-16T11:30:06.559Z,35.72
2023-04-16T11:32:36.515Z,35.81
2023-04-16T11:35:13.622Z,36.09
2023-04-16T11:37:42.804Z,36.73
2023-04-16T11:40:11.833Z,37.18
2023-04-16T11:42:41.652Z,36.88
2023-04-16T11:45:11.926Z,36.49
2023-04-16T11:47:53.466Z,37.02
2023-04-16T11:50:26.025Z,36.67
2023-04-16T11:52:56.931Z,35.88
2023-04-16T11:55:25.634Z,35.37
2023-04-16T11:57:53.936Z,35.19
2023-04-16T12:00:24.732Z,35.45
2023-04-16T12:02:55.317Z,35.89
2023-04-16T12:05:28.720Z,35.62
2023-04-16T12:08:02.040Z,35.20
2023-04-16T12:10:32.609Z,35.43
2023-04-16T12:13:17.607Z,35.15
2023-04-16T12:15:49.783Z,34.89
2023-04-16T12:18:20.473Z,35.49
2023-04-16T12:20:51.148Z,35.17
2023-04-16T12:23:30.879Z,34.27
2023-04-16T12:26:03.151Z,34.67
2023-04-16T12:28:34.183Z,34.86
2023-04-16T12:31:03.788Z,34.84
2023-04-16T12:33:32.240Z,34.60
2023-04-16T12:36:01.803Z,35.04
2023-04-16T12:38:31.005Z,34.85
2023-04-16T12:40:59.288Z,34.74
2023-04-16T12:43:27.771Z,34.49
2023-04-16T12:45:56.241Z,34.01
2023-04-16T12:48:24.623Z,33.73
2023-04-16T12:50:55.253Z,34.31
2023-04-16T12:53:23.364Z,34.48
2023-04-16T12:55:51.824Z,34.14
2023-04-16T12:58:20.396Z,34.24
2023-04-16T13:00:48.483Z,34.30
2023-04-16T13:03:16.798Z,34.46
2023-04-16T13:05:45.765Z,34.32
2023-04-16T13:08:14.028Z,34.59
2023-04-16T13:10:42.757Z,34.45
2023-04-16T13:13:11.205Z,34.61
2023-04-16T13:15:39.831Z,34.48
2023-04-16T13:18:08.186Z,34.15
2023-04-16T13:20:36.746Z,34.38
2023-04-16T13:23:05.382Z,34.28
2023-04-16T13:25:33.709Z,34.41
2023-04-16T13:28:02.204Z,34.96
2023-04-16T13:30:31.918Z,35.11
2023-04-16T13:33:00.324Z,35.27
2023-04-16T13:35:30.303Z,35.75
2023-04-16T13:37:58.482Z,35.40
2023-04-16T13:40:26.858Z,35.42
2023-04-16T13:42:55.050Z,35.89
2023-04-16T13:45:23.415Z,35.87
2023-04-16T13:47:51.927Z,35.62
2023-04-16T13:50:20.590Z,36.21
2023-04-16T13:52:49.169Z,36.17
2023-04-16T13:55:19.351Z,36.31
2023-04-16T13:57:47.874Z,36.06
2023-04-16T14:00:17.390Z,36.04
2023-04-16T14:02:49.055Z,36.22
2023-04-16T14:05:17.522Z,36.15
2023-04-16T14:07:46.659Z,36.54
2023-04-16T14:10:14.997Z,36.73
2023-04-16T14:12:44.899Z,37.08
2023-04-16T14:15:15.061Z,37.37
2023-04-16T14:17:44.312Z,37.75
2023-04-16T14:20:14.216Z,38.14
2023-04-16T14:22:44.101Z,38.25
2023-04-16T14:25:12.682Z,38.38
2023-04-16T14:27:41.791Z,38.38
2023-04-16T14:30:10.441Z,38.19
2023-04-16T14:32:38.844Z,37.83
2023-04-16T14:35:08.558Z,37.84
2023-04-16T14:37:37.484Z,37.82
2023-04-16T14:40:08.958Z,37.96
2023-04-16T14:42:37.880Z,37.94
2023-04-16T14:45:07.497Z,38.35
2023-04-16T14:47:37.906Z,38.17
2023-04-16T14:50:06.965Z,38.18
2023-04-16T14:52:35.490Z,38.03
2023-04-16T14:55:04.019Z,40.09
2023-04-16T14:57:33.694Z,43.41
2023-04-16T15:00:02.176Z,44.55
2023-04-16T15:02:30.850Z,45.34
2023-04-16T15:05:00.695Z,47.26
2023-04-16T15:07:28.876Z,48.93
2023-04-16T15:09:57.231Z,50.60
2023-04-16T15:12:26.637Z,51.90
2023-04-16T15:14:54.917Z,53.28
2023-04-16T15:17:23.326Z,54.41
2023-04-16T15:19:52.535Z,55.62
2023-04-16T15:22:20.972Z,56.54
2023-04-16T15:24:50.176Z,57.31
2023-04-16T15:27:19.485Z,57.89
2023-04-16T15:29:49.495Z,58.50
2023-04-16T15:32:17.873Z,59.00
2023-04-16T15:34:46.706Z,59.66
2023-04-16T15:37:15.974Z,59.53
2023-04-16T15:39:44.794Z,60.74
2023-04-16T15:42:13.453Z,61.02
2023-04-16T15:44:41.728Z,61.39
2023-04-16T15:47:10.008Z,61.29
2023-04-16T15:49:38.398Z,61.64
2023-04-16T15:52:06.908Z,62.48
2023-04-16T15:54:35.148Z,62.59
2023-04-16T15:57:03.564Z,62.50
2023-04-16T15:59:32.843Z,62.69
2023-04-16T16:02:01.629Z,63.03
2023-04-16T16:04:30.207Z,63.09
2023-04-16T16:06:58.890Z,63.19
2023-04-16T16:09:28.032Z,63.32
2023-04-16T16:11:58.037Z,63.50
2023-04-16T16:14:27.222Z,63.54
2023-04-16T16:16:55.721Z,63.68
2023-04-16T16:19:23.781Z,63.75
2023-04-16T16:21:52.046Z,64.21
2023-04-16T16:24:20.324Z,64.43
2023-04-16T16:26:48.803Z,64.27
2023-04-16T16:29:17.125Z,64.37
2023-04-16T16:31:45.528Z,64.18
2023-04-16T16:34:20.367Z,64.22
2023-04-16T16:36:49.735Z,64.29
2023-04-16T16:39:18.072Z,64.14
2023-04-16T16:41:47.896Z,64.10
2023-04-16T16:44:16.182Z,63.86
2023-04-16T16:46:44.790Z,64.43
2023-04-16T16:49:13.988Z,64.52
2023-04-16T16:51:42.641Z,63.62
2023-04-16T16:54:11.125Z,62.86
2023-04-16T16:56:39.409Z,62.38
2023-04-16T16:59:09.143Z,62.28
2023-04-16T17:01:37.571Z,62.33
2023-04-16T17:04:06.223Z,62.61
2023-04-16T17:06:35.048Z,63.07
2023-04-16T17:09:04.702Z,63.81
2023-04-16T17:11:33.177Z,63.77
2023-04-16T17:14:01.534Z,63.99
2023-04-16T17:16:29.986Z,64.18
2023-04-16T17:18:59.546Z,64.20
2023-04-16T17:21:28.143Z,64.56
2023-04-16T17:23:58.189Z,65.12
2023-04-16T17:26:26.629Z,65.91
2023-04-16T17:28:56.782Z,65.88
2023-04-16T17:31:27.206Z,65.48
2023-04-16T17:33:55.969Z,65.62
2023-04-16T17:36:25.601Z,65.82
2023-04-16T17:38:53.832Z,65.51
2023-04-16T17:41:22.064Z,65.50
2023-04-16T17:43:51.126Z,65.74
2023-04-16T17:46:19.521Z,66.00
2023-04-16T17:48:49.028Z,65.86
2023-04-16T17:51:17.419Z,66.17
2023-04-16T17:53:46.122Z,67.13
2023-04-16T17:56:14.767Z,67.44
2023-04-16T17:58:43.153Z,67.48
2023-04-16T18:01:11.692Z,67.81
2023-04-16T18:03:40.455Z,68.59
2023-04-16T18:06:08.824Z,69.60
2023-04-16T18:08:37.188Z,69.91
2023-04-16T18:11:08.864Z,70.70
2023-04-16T18:13:37.084Z,71.38
2023-04-16T18:16:05.379Z,71.69
2023-04-16T18:18:33.698Z,72.69
2023-04-16T18:21:01.849Z,74.06
2023-04-16T18:23:30.138Z,75.59
2023-04-16T18:25:58.917Z,78.00
2023-04-16T18:28:27.631Z,80.30
2023-04-16T18:30:58.874Z,82.64
2023-04-16T18:33:52.505Z,84.04
2023-04-16T18:36:15.901Z,85.13
2023-04-16T18:38:59.564Z,85.77
2023-04-16T18:41:31.957Z,85.39
2023-04-16T18:44:00.282Z,86.30
2023-04-16T18:46:28.505Z,86.94
2023-04-16T18:48:56.839Z,86.63
2023-04-16T18:51:25.523Z,87.00
2023-04-16T18:53:53.907Z,87.02
2023-04-16T18:56:22.147Z,87.03
2023-04-16T18:58:50.391Z,87.97
2023-04-16T19:01:18.700Z,87.39
2023-04-16T19:03:47.627Z,87.41
2023-04-16T19:06:16.014Z,87.86
2023-04-16T19:08:44.178Z,88.70
2023-04-16T19:11:12.492Z,88.81
2023-04-16T19:13:40.852Z,88.71
2023-04-16T19:16:11.656Z,88.59
2023-04-16T19:18:40.242Z,87.91
2023-04-16T19:21:11.120Z,87.99
2023-04-16T19:23:39.511Z,87.61
2023-04-16T19:26:07.989Z,87.87
2023-04-16T19:28:36.707Z,90.45
2023-04-16T19:31:04.945Z,90.96
2023-04-16T19:33:33.118Z,90.82
2023-04-16T19:36:02.645Z,91.21
2023-04-16T19:38:33.666Z,89.75
2023-04-16T19:41:02.184Z,90.81
2023-04-16T19:43:31.171Z,91.72
2023-04-16T19:45:59.530Z,91.15
2023-04-16T19:48:28.239Z,91.07
2023-04-16T19:50:56.327Z,90.76
2023-04-16T19:53:25.254Z,89.75
2023-04-16T19:55:53.458Z,89.33
2023-04-16T19:58:22.063Z,90.68
2023-04-16T20:00:50.764Z,90.05
2023-04-16T20:03:18.988Z,90.50
2023-04-16T20:05:50.995Z,91.08
2023-04-16T20:08:19.466Z,90.19
2023-04-16T20:10:47.532Z,89.24
2023-04-16T20:13:18.466Z,88.87
2023-04-16T20:15:47.466Z,88.90
2023-04-16T20:18:15.648Z,89.12
2023-04-16T20:20:43.832Z,89.16
2023-04-16T20:23:12.090Z,89.20
2023-04-16T20:25:44.053Z,89.32
2023-04-16T20:28:14.727Z,89.23
2023-04-16T20:30:43.077Z,89.72
2023-04-16T20:33:11.459Z,89.51
2023-04-16T20:35:39.954Z,91.53
2023-04-16T20:38:08.619Z,92.10
2023-04-16T20:40:38.329Z,92.00
2023-04-16T20:43:10.422Z,91.68
2023-04-16T20:45:41.090Z,92.19
2023-04-16T20:48:09.743Z,92.35
2023-04-16T20:50:38.207Z,93.52
2023-04-16T20:53:06.518Z,94.16
2023-04-16T20:55:34.981Z,94.11
2023-04-16T20:58:03.248Z,95.48
2023-04-16T21:00:31.439Z,96.65
2023-04-16T21:03:00.175Z,96.80
2023-04-16T21:05:30.195Z,97.50
2023-04-16T21:07:58.519Z,97.97
2023-04-16T21:10:26.989Z,98.37
2023-04-16T21:12:55.796Z,98.48
2023-04-16T21:15:24.018Z,99.06
2023-04-16T21:17:52.543Z,98.60
2023-04-16T21:20:20.947Z,98.80
2023-04-16T21:22:50.541Z,97.89
2023-04-16T21:25:18.708Z,97.70
2023-04-16T21:27:46.986Z,98.60
2023-04-16T21:30:16.021Z,97.57
2023-04-16T21:32:44.875Z,98.85
2023-04-16T21:35:13.563Z,98.15
2023-04-16T21:37:41.947Z,98.08
2023-04-16T21:40:10.751Z,98.52
2023-04-16T21:42:42.493Z,98.31
2023-04-16T21:45:11.403Z,97.48
2023-04-16T21:47:39.780Z,97.58
2023-04-16T21:50:09.008Z,97.57
2023-04-16T21:52:40.848Z,97.72
2023-04-16T21:55:09.934Z,98.85
2023-04-16T21:57:38.202Z,99.58
2023-04-16T22:00:14.890Z,99.20
2023-04-16T22:02:43.687Z,99.54
2023-04-16T22:05:12.415Z,100.00
2023-04-16T22:07:40.766Z,100.00
2023-04-16T22:10:09.846Z,100.00
2023-04-16T22:12:38.112Z,99.96
2023-04-16T22:15:07.430Z,99.82
2023-04-16T22:17:36.093Z,98.59
2023-04-16T22:20:13.337Z,98.91
2023-04-16T22:22:42.726Z,98.00
2023-04-16T22:25:11.653Z,97.73
2023-04-16T22:27:40.069Z,97.23
2023-04-16T22:30:09.497Z,96.57
2023-04-16T22:32:38.617Z,96.18
2023-04-16T22:35:07.818Z,95.78
2023-04-16T22:37:35.911Z,95.09
2023-04-16T22:40:08.551Z,94.82
2023-04-16T22:42:37.210Z,94.12
2023-04-16T22:45:06.258Z,93.80
2023-04-16T22:47:35.023Z,93.76
2023-04-16T22:50:03.496Z,93.81
2023-04-16T22:52:32.104Z,93.98
2023-04-16T22:55:00.450Z,94.14
2023-04-16T22:57:28.925Z,94.38
2023-04-16T22:59:57.429Z,94.49
2023-04-16T23:02:25.808Z,94.46
2023-04-16T23:04:54.413Z,94.57
2023-04-16T23:07:22.651Z,94.84
2023-04-16T23:09:51.178Z,95.08
2023-04-16T23:12:19.425Z,95.96
2023-04-16T23:14:48.410Z,96.19
2023-04-16T23:17:16.527Z,96.71
2023-04-16T23:19:44.656Z,97.31
2023-04-16T23:22:13.181Z,97.94
2023-04-16T23:24:41.420Z,99.24
2023-04-16T23:27:09.807Z,99.97
2023-04-16T23:29:38.179Z,99.97
2023-04-16T23:32:06.561Z,100.00
2023-04-16T23:34:34.775Z,100.00
2023-04-16T23:37:03.134Z,100.00
2023-04-16T23:39:31.406Z,100.00
2023-04-16T23:41:59.994Z,100.00
2023-04-16T23:44:28.048Z,100.00
2023-04-16T23:46:56.581Z,100.00
2023-04-16T23:49:25.148Z,100.00
2023-04-16T23:51:53.366Z,100.00
2023-04-16T23:54:22.202Z,100.00
2023-04-16T23:56:51.080Z,100.00
2023-04-16T23:59:19.782Z,100.00
